createdAt,value
2022-11-27T00:02:09.065Z,2.87
2022-11-27T00:04:35.854Z,3.10
2022-11-27T00:07:03.306Z,2.60
2022-11-27T00:09:30.275Z,2.53
2022-11-27T00:11:57.014Z,2.83
2022-11-27T00:14:23.988Z,2.90
2022-11-27T00:16:50.830Z,2.40
2022-11-27T00:19:17.749Z,2.63
2022-11-27T00:21:44.641Z,2.40
2022-11-27T00:24:12.045Z,2.80
2022-11-27T00:26:38.893Z,2.60
2022-11-27T00:29:07.281Z,3.03
2022-11-27T00:31:37.479Z,4.87
2022-11-27T00:34:08.604Z,2.70
2022-11-27T00:36:37.002Z,2.20
2022-11-27T00:39:04.218Z,2.70
2022-11-27T00:41:31.532Z,2.63
2022-11-27T00:43:59.363Z,2.57
2022-11-27T00:46:29.700Z,2.70
2022-11-27T00:49:01.948Z,2.37
2022-11-27T00:51:29.631Z,3.10
2022-11-27T00:53:56.430Z,2.70
2022-11-27T00:56:26.285Z,2.40
2022-11-27T00:58:53.979Z,2.87
2022-11-27T01:01:24.628Z,2.30
2022-11-27T01:03:52.003Z,2.70
2022-11-27T01:06:20.063Z,2.50
2022-11-27T01:08:47.988Z,2.70
2022-11-27T01:11:25.851Z,2.63
2022-11-27T01:13:53.417Z,3.43
2022-11-27T01:16:23.102Z,2.57
2022-11-27T01:18:51.794Z,3.00
2022-11-27T01:21:20.780Z,3.13
2022-11-27T01:23:49.090Z,2.67
2022-11-27T01:26:17.703Z,3.00
2022-11-27T01:28:45.132Z,3.40
2022-11-27T01:31:15.146Z,2.50
2022-11-27T01:33:42.810Z,3.00
2022-11-27T01:36:12.616Z,2.93
2022-11-27T01:38:39.516Z,3.10
2022-11-27T01:41:17.296Z,2.77
2022-11-27T01:43:44.072Z,2.77
2022-11-27T01:46:39.849Z,3.30
2022-11-27T01:49:09.583Z,2.93
2022-11-27T01:51:46.886Z,2.77
2022-11-27T01:54:16.078Z,2.70
2022-11-27T01:56:46.104Z,2.73
2022-11-27T01:59:13.593Z,2.60
2022-11-27T02:01:40.487Z,2.57
2022-11-27T02:04:07.342Z,2.50
2022-11-27T02:06:34.252Z,2.67
2022-11-27T02:09:01.155Z,2.53
2022-11-27T02:11:51.126Z,2.20
2022-11-27T02:14:32.494Z,2.00
2022-11-27T02:17:12.791Z,2.87
2022-11-27T02:20:04.089Z,2.10
2022-11-27T02:22:51.248Z,2.37
2022-11-27T02:25:35.882Z,2.20
2022-11-27T02:28:09.828Z,3.00
2022-11-27T02:30:43.458Z,2.43
2022-11-27T02:33:14.406Z,2.27
2022-11-27T02:35:50.258Z,2.13
2022-11-27T02:38:28.200Z,2.50
2022-11-27T02:40:57.253Z,2.63
2022-11-27T02:43:36.215Z,2.27
2022-11-27T02:46:05.427Z,2.47
2022-11-27T02:48:40.625Z,2.20
2022-11-27T02:51:08.406Z,2.53
2022-11-27T02:53:57.678Z,2.70
2022-11-27T02:56:28.194Z,2.53
2022-11-27T02:58:59.031Z,2.17
2022-11-27T03:01:29.953Z,2.50
2022-11-27T03:04:00.086Z,2.57
2022-11-27T03:06:52.660Z,2.80
2022-11-27T03:09:25.352Z,2.10
2022-11-27T03:11:52.708Z,2.20
2022-11-27T03:14:24.547Z,2.40
2022-11-27T03:17:06.854Z,2.07
2022-11-27T03:19:45.891Z,2.83
2022-11-27T03:22:13.021Z,1.97
2022-11-27T03:24:40.012Z,1.97
2022-11-27T03:27:07.413Z,2.40
2022-11-27T03:29:43.186Z,1.97
2022-11-27T03:32:10.128Z,2.13
2022-11-27T03:34:37.789Z,3.00
2022-11-27T03:37:04.955Z,1.13
2022-11-27T03:39:33.201Z,1.93
2022-11-27T03:42:09.946Z,2.30
2022-11-27T03:44:45.927Z,2.37
2022-11-27T03:47:18.589Z,2.43
2022-11-27T03:50:08.307Z,2.40
2022-11-27T03:52:55.372Z,2.23
2022-11-27T03:55:31.117Z,2.30
2022-11-27T03:58:04.319Z,2.40
2022-11-27T04:00:35.334Z,2.33
2022-11-27T04:03:03.619Z,2.40
2022-11-27T04:05:30.366Z,2.47
2022-11-27T04:07:57.390Z,2.63
2022-11-27T04:10:24.242Z,2.83
2022-11-27T04:12:50.999Z,1.40
2022-11-27T04:15:18.048Z,2.33
2022-11-27T04:17:44.836Z,2.80
2022-11-27T04:20:15.535Z,2.73
2022-11-27T04:22:42.505Z,2.70
2022-11-27T04:25:09.693Z,1.30
2022-11-27T04:27:36.786Z,2.30
2022-11-27T04:30:04.360Z,3.07
2022-11-27T04:32:31.135Z,2.40
2022-11-27T04:34:57.910Z,3.03
2022-11-27T04:37:24.854Z,2.53
2022-11-27T04:39:51.595Z,2.23
2022-11-27T04:42:18.360Z,2.63
2022-11-27T04:44:45.249Z,2.20
2022-11-27T04:47:11.976Z,2.23
2022-11-27T04:49:38.888Z,2.47
2022-11-27T04:52:05.875Z,2.63
2022-11-27T04:54:32.916Z,2.40
2022-11-27T04:56:59.732Z,2.23
2022-11-27T04:59:26.692Z,1.80
2022-11-27T05:01:53.553Z,2.40
2022-11-27T05:04:21.263Z,2.87
2022-11-27T05:06:48.426Z,2.07
2022-11-27T05:09:17.868Z,2.50
2022-11-27T05:11:44.741Z,2.17
2022-11-27T05:14:22.748Z,2.17
2022-11-27T05:16:54.808Z,2.50
2022-11-27T05:19:23.780Z,1.63
2022-11-27T05:21:51.845Z,2.70
2022-11-27T05:24:21.671Z,2.40
2022-11-27T05:26:49.245Z,1.57
2022-11-27T05:29:16.872Z,2.50
2022-11-27T05:31:44.584Z,1.80
2022-11-27T05:34:11.595Z,1.67
2022-11-27T05:36:38.767Z,2.63
2022-11-27T05:39:07.207Z,2.20
2022-11-27T05:41:35.120Z,2.37
2022-11-27T05:44:02.826Z,2.27
2022-11-27T05:46:30.217Z,2.07
2022-11-27T05:48:57.243Z,2.27
2022-11-27T05:51:24.883Z,2.40
2022-11-27T05:53:51.753Z,1.87
2022-11-27T05:56:18.875Z,2.40
2022-11-27T05:58:47.554Z,2.13
2022-11-27T06:01:16.439Z,1.53
2022-11-27T06:03:43.591Z,2.23
2022-11-27T06:06:14.732Z,2.20
2022-11-27T06:08:42.125Z,2.10
2022-11-27T06:11:14.661Z,1.97
2022-11-27T06:13:41.605Z,2.10
2022-11-27T06:16:12.275Z,2.00
2022-11-27T06:18:39.375Z,2.40
2022-11-27T06:21:11.526Z,1.70
2022-11-27T06:23:39.245Z,1.90
2022-11-27T06:26:20.567Z,1.67
2022-11-27T06:28:48.481Z,2.07
2022-11-27T06:31:21.015Z,2.40
2022-11-27T06:33:50.104Z,2.07
2022-11-27T06:36:18.407Z,1.50
2022-11-27T06:38:46.242Z,1.80
2022-11-27T06:41:16.525Z,2.03
2022-11-27T06:43:44.009Z,2.23
2022-11-27T06:46:16.340Z,2.13
2022-11-27T06:48:45.017Z,1.70
2022-11-27T06:51:14.306Z,1.50
2022-11-27T06:53:41.626Z,1.80
2022-11-27T06:56:13.680Z,1.67
2022-11-27T06:58:40.498Z,1.90
2022-11-27T07:01:10.230Z,1.87
2022-11-27T07:03:37.308Z,1.53
2022-11-27T07:06:07.001Z,1.97
2022-11-27T07:08:34.714Z,1.50
2022-11-27T07:11:06.991Z,1.90
2022-11-27T07:13:34.220Z,2.00
2022-11-27T07:16:06.918Z,2.13
2022-11-27T07:18:42.920Z,1.97
2022-11-27T07:21:10.397Z,1.70
2022-11-27T07:23:37.707Z,1.37
2022-11-27T07:26:17.094Z,1.50
2022-11-27T07:28:44.643Z,1.53
2022-11-27T07:31:13.471Z,3.17
2022-11-27T07:33:40.464Z,2.40
2022-11-27T07:36:14.253Z,2.27
2022-11-27T07:38:41.253Z,1.57
2022-11-27T07:41:08.552Z,2.10
2022-11-27T07:43:36.622Z,1.83
2022-11-27T07:46:08.115Z,1.90
2022-11-27T07:48:34.984Z,2.00
2022-11-27T07:51:02.216Z,1.63
2022-11-27T07:53:29.257Z,1.83
2022-11-27T07:55:59.349Z,1.97
2022-11-27T07:58:26.219Z,2.00
2022-11-27T08:00:53.272Z,2.20
2022-11-27T08:03:20.045Z,1.50
2022-11-27T08:05:46.892Z,1.67
2022-11-27T08:08:14.003Z,1.87
2022-11-27T08:10:41.353Z,1.70
2022-11-27T08:13:08.706Z,1.90
2022-11-27T08:15:37.338Z,1.80
2022-11-27T08:18:04.924Z,1.80
2022-11-27T08:20:32.426Z,2.13
2022-11-27T08:23:02.668Z,1.97
2022-11-27T08:25:30.417Z,1.90
2022-11-27T08:27:57.523Z,1.87
2022-11-27T08:30:25.013Z,2.10
2022-11-27T08:32:51.842Z,2.20
2022-11-27T08:35:18.876Z,2.17
2022-11-27T08:37:46.138Z,2.10
2022-11-27T08:40:13.045Z,2.10
2022-11-27T08:42:39.813Z,2.03
2022-11-27T08:45:07.326Z,1.93
2022-11-27T08:47:34.128Z,2.00
2022-11-27T08:50:01.036Z,1.70
2022-11-27T08:52:27.917Z,1.80
2022-11-27T08:54:57.739Z,1.70
2022-11-27T08:57:25.714Z,2.00
2022-11-27T08:59:52.567Z,2.07
2022-11-27T09:02:19.360Z,2.03
2022-11-27T09:04:46.298Z,1.70
2022-11-27T09:07:15.462Z,2.10
2022-11-27T09:09:42.312Z,2.10
2022-11-27T09:12:09.227Z,1.90
2022-11-27T09:14:36.402Z,2.00
2022-11-27T09:17:03.415Z,2.00
2022-11-27T09:19:30.449Z,2.13
2022-11-27T09:21:57.431Z,1.80
2022-11-27T09:24:24.958Z,2.10
2022-11-27T09:26:51.812Z,2.00
2022-11-27T09:29:18.941Z,3.73
2022-11-27T09:31:45.999Z,3.73
2022-11-27T09:34:13.270Z,2.00
2022-11-27T09:36:40.205Z,2.10
2022-11-27T09:39:07.289Z,2.50
2022-11-27T09:41:50.452Z,2.40
2022-11-27T09:44:45.544Z,1.90
2022-11-27T09:47:18.459Z,2.20
2022-11-27T09:49:48.010Z,2.07
2022-11-27T09:52:17.691Z,2.20
2022-11-27T09:54:55.322Z,2.40
2022-11-27T09:57:29.535Z,2.43
2022-11-27T10:00:01.670Z,2.20
2022-11-27T10:02:31.968Z,1.67
2022-11-27T10:05:16.883Z,1.97
2022-11-27T10:07:50.818Z,1.80
2022-11-27T10:10:45.541Z,2.20
2022-11-27T10:13:33.244Z,2.43
2022-11-27T10:16:30.968Z,2.43
2022-11-27T10:19:08.836Z,1.90
2022-11-27T10:22:05.868Z,2.07
2022-11-27T10:24:54.210Z,1.90
2022-11-27T10:27:29.450Z,1.77
2022-11-27T10:29:57.997Z,2.00
2022-11-27T10:32:54.809Z,2.67
2022-11-27T10:35:24.651Z,2.37
2022-11-27T10:38:01.013Z,2.03
2022-11-27T10:40:40.378Z,1.87
2022-11-27T10:43:18.989Z,2.40
2022-11-27T10:45:56.319Z,2.40
2022-11-27T10:48:24.363Z,2.20
2022-11-27T10:50:51.826Z,2.33
2022-11-27T10:53:30.769Z,2.00
2022-11-27T10:56:13.919Z,2.27
2022-11-27T10:58:56.967Z,2.13
2022-11-27T11:01:26.184Z,3.87
2022-11-27T11:04:31.358Z,3.10
2022-11-27T11:06:55.404Z,2.50
2022-11-27T11:09:29.675Z,2.70
2022-11-27T11:12:21.167Z,2.40
2022-11-27T11:14:59.452Z,2.53
2022-11-27T11:17:28.924Z,2.70
2022-11-27T11:19:55.967Z,2.80
2022-11-27T11:22:24.277Z,2.93
2022-11-27T11:24:53.229Z,3.77
2022-11-27T11:27:21.444Z,3.70
2022-11-27T11:30:01.255Z,3.23
2022-11-27T11:32:36.926Z,3.73
2022-11-27T11:35:09.984Z,3.17
2022-11-27T11:37:41.995Z,2.20
2022-11-27T11:40:21.199Z,2.70
2022-11-27T11:42:55.670Z,2.90
2022-11-27T11:45:23.085Z,2.57
2022-11-27T11:47:50.963Z,2.87
2022-11-27T11:50:37.014Z,2.83
2022-11-27T11:53:42.643Z,3.20
2022-11-27T11:56:33.322Z,2.73
2022-11-27T11:59:18.729Z,2.90
2022-11-27T12:02:04.250Z,2.63
2022-11-27T12:04:39.544Z,3.00
2022-11-27T12:07:31.253Z,3.30
2022-11-27T12:10:08.287Z,3.07
2022-11-27T12:13:05.216Z,2.87
2022-11-27T12:15:44.693Z,2.50
2022-11-27T12:18:25.933Z,3.23
2022-11-27T12:21:21.543Z,2.87
2022-11-27T12:24:02.676Z,2.60
2022-11-27T12:26:48.407Z,3.20
2022-11-27T12:29:22.124Z,3.07
2022-11-27T12:32:02.020Z,2.73
2022-11-27T12:35:02.800Z,2.90
2022-11-27T12:37:54.585Z,2.93
2022-11-27T12:40:56.808Z,3.07
2022-11-27T12:43:25.095Z,2.67
2022-11-27T12:46:01.918Z,3.20
2022-11-27T12:49:04.837Z,2.70
2022-11-27T12:51:37.647Z,2.47
2022-11-27T12:54:21.149Z,2.63
2022-11-27T12:56:55.000Z,2.17
2022-11-27T12:59:33.357Z,2.73
2022-11-27T13:02:18.789Z,2.50
2022-11-27T13:04:57.627Z,2.37
2022-11-27T13:07:53.958Z,2.20
2022-11-27T13:10:26.587Z,2.97
2022-11-27T13:13:07.758Z,2.87
2022-11-27T13:15:51.054Z,2.83
2022-11-27T13:18:30.699Z,2.83
2022-11-27T13:21:01.245Z,3.27
2022-11-27T13:23:32.871Z,3.00
2022-11-27T13:26:04.070Z,2.90
2022-11-27T13:28:47.560Z,3.13
2022-11-27T13:31:28.425Z,3.30
2022-11-27T13:34:03.072Z,3.30
2022-11-27T13:36:42.803Z,3.03
2022-11-27T13:39:24.042Z,2.80
2022-11-27T13:42:21.202Z,3.10
2022-11-27T13:44:57.410Z,3.00
2022-11-27T13:47:28.218Z,2.73
2022-11-27T13:50:05.813Z,2.47
2022-11-27T13:52:32.963Z,3.07
2022-11-27T13:55:07.829Z,2.40
2022-11-27T13:57:34.999Z,3.00
2022-11-27T14:00:16.442Z,2.93
2022-11-27T14:02:51.503Z,3.00
2022-11-27T14:05:21.240Z,3.13
2022-11-27T14:07:52.544Z,3.30
2022-11-27T14:10:26.284Z,3.13
2022-11-27T14:13:01.816Z,3.70
2022-11-27T14:15:31.158Z,3.43
2022-11-27T14:18:18.332Z,3.80
2022-11-27T14:20:50.338Z,3.30
2022-11-27T14:23:34.045Z,3.10
2022-11-27T14:26:20.445Z,2.87
2022-11-27T14:28:54.279Z,3.30
2022-11-27T14:31:36.035Z,3.10
2022-11-27T14:34:20.893Z,3.73
2022-11-27T14:36:53.155Z,3.63
2022-11-27T14:39:37.265Z,3.90
2022-11-27T14:42:19.280Z,3.87
2022-11-27T14:44:46.460Z,3.63
2022-11-27T14:47:20.602Z,3.53
2022-11-27T14:49:55.945Z,3.27
2022-11-27T14:52:24.134Z,3.20
2022-11-27T14:54:51.885Z,3.97
2022-11-27T14:57:27.234Z,3.17
2022-11-27T15:00:25.267Z,3.40
2022-11-27T15:02:52.461Z,3.33
2022-11-27T15:05:20.440Z,2.77
2022-11-27T15:07:50.829Z,3.23
2022-11-27T15:10:27.695Z,2.63
2022-11-27T15:12:54.765Z,3.40
2022-11-27T15:15:26.512Z,3.10
2022-11-27T15:18:03.199Z,3.20
2022-11-27T15:20:42.644Z,2.93
2022-11-27T15:23:17.308Z,2.90
2022-11-27T15:26:08.338Z,2.93
2022-11-27T15:28:50.233Z,3.03
2022-11-27T15:31:27.414Z,2.47
2022-11-27T15:34:14.809Z,2.87
2022-11-27T15:36:44.268Z,2.70
2022-11-27T15:39:19.721Z,2.60
2022-11-27T15:42:01.759Z,3.50
2022-11-27T15:44:32.031Z,3.10
2022-11-27T15:47:01.530Z,3.17
2022-11-27T15:49:28.564Z,2.63
2022-11-27T15:51:56.909Z,3.30
2022-11-27T15:54:24.330Z,2.73
2022-11-27T15:56:51.515Z,3.03
2022-11-27T15:59:20.985Z,3.07
2022-11-27T16:01:49.644Z,3.10
2022-11-27T16:04:17.133Z,3.00
2022-11-27T16:06:44.160Z,3.23
2022-11-27T16:09:11.121Z,3.13
2022-11-27T16:11:38.201Z,3.13
2022-11-27T16:14:05.451Z,3.07
2022-11-27T16:16:32.975Z,3.63
2022-11-27T16:19:01.186Z,3.30
2022-11-27T16:21:30.059Z,2.97
2022-11-27T16:24:02.952Z,2.80
2022-11-27T16:26:30.542Z,3.00
2022-11-27T16:28:58.156Z,3.10
2022-11-27T16:31:26.318Z,3.13
2022-11-27T16:33:53.406Z,3.27
2022-11-27T16:36:22.901Z,2.63
2022-11-27T16:38:52.920Z,3.00
2022-11-27T16:41:20.330Z,3.17
2022-11-27T16:43:50.433Z,2.83
2022-11-27T16:46:26.577Z,3.20
2022-11-27T16:48:55.873Z,2.87
2022-11-27T16:51:33.188Z,2.97
2022-11-27T16:54:05.606Z,3.40
2022-11-27T16:56:35.628Z,3.60
2022-11-27T16:59:11.552Z,3.50
2022-11-27T17:01:41.353Z,4.23
2022-11-27T17:04:10.095Z,2.80
2022-11-27T17:06:38.589Z,3.17
2022-11-27T17:09:07.634Z,3.23
2022-11-27T17:11:36.789Z,3.37
2022-11-27T17:14:07.011Z,3.43
2022-11-27T17:16:36.305Z,3.43
2022-11-27T17:19:04.311Z,3.30
2022-11-27T17:21:34.328Z,3.40
2022-11-27T17:24:14.448Z,3.93
2022-11-27T17:26:44.640Z,3.40
2022-11-27T17:29:13.823Z,3.63
2022-11-27T17:31:40.857Z,3.47
2022-11-27T17:34:10.398Z,3.83
2022-11-27T17:36:39.046Z,3.63
2022-11-27T17:39:06.992Z,3.50
2022-11-27T17:41:34.688Z,3.37
2022-11-27T17:44:04.740Z,3.47
2022-11-27T17:46:32.540Z,3.93
2022-11-27T17:49:01.811Z,3.70
2022-11-27T17:51:31.864Z,3.23
2022-11-27T17:54:01.333Z,3.37
2022-11-27T17:56:32.391Z,3.13
2022-11-27T17:59:01.878Z,3.77
2022-11-27T18:01:30.092Z,3.93
2022-11-27T18:04:00.633Z,3.80
2022-11-27T18:06:30.903Z,3.30
2022-11-27T18:08:58.691Z,3.37
2022-11-27T18:11:29.036Z,3.50
2022-11-27T18:13:58.935Z,3.70
2022-11-27T18:16:35.573Z,3.63
2022-11-27T18:19:05.703Z,3.13
2022-11-27T18:21:33.427Z,3.83
2022-11-27T18:29:37.710Z,3.50
2022-11-27T18:32:05.047Z,3.77
2022-11-27T18:34:32.314Z,3.27
2022-11-27T18:36:59.862Z,3.70
2022-11-27T18:39:27.716Z,3.47
2022-11-27T18:41:54.810Z,3.27
2022-11-27T18:44:21.853Z,3.70
2022-11-27T18:46:50.610Z,3.70
2022-11-27T18:49:18.206Z,3.97
2022-11-27T18:51:46.889Z,3.80
2022-11-27T18:54:13.776Z,4.03
2022-11-27T18:56:40.747Z,3.77
2022-11-27T18:59:09.651Z,4.40
2022-11-27T19:01:42.223Z,3.73
2022-11-27T19:04:11.461Z,3.70
2022-11-27T19:06:39.388Z,3.60
2022-11-27T19:09:06.925Z,3.33
2022-11-27T19:11:35.352Z,3.70
2022-11-27T19:14:04.463Z,4.13
2022-11-27T19:16:35.269Z,4.13
2022-11-27T19:19:05.432Z,3.70
2022-11-27T19:21:35.361Z,4.30
2022-11-27T19:24:05.588Z,4.33
2022-11-27T19:26:35.373Z,3.77
2022-11-27T19:29:07.912Z,4.20
2022-11-27T19:31:38.098Z,4.53
2022-11-27T19:34:06.787Z,4.00
2022-11-27T19:36:36.510Z,3.27
2022-11-27T19:39:07.069Z,3.53
2022-11-27T19:41:34.916Z,3.60
2022-11-27T19:44:06.320Z,4.13
2022-11-27T19:46:36.055Z,3.80
2022-11-27T19:49:12.755Z,3.53
2022-11-27T19:51:40.690Z,3.77
2022-11-27T19:54:10.513Z,3.80
2022-11-27T19:56:40.501Z,4.07
2022-11-27T19:59:07.875Z,3.97
2022-11-27T20:01:36.007Z,4.37
2022-11-27T20:04:04.280Z,3.63
2022-11-27T20:06:31.222Z,3.97
2022-11-27T20:09:01.344Z,4.67
2022-11-27T20:11:34.915Z,4.20
2022-11-27T20:14:05.727Z,3.63
2022-11-27T20:16:35.280Z,4.23
2022-11-27T20:19:05.772Z,3.90
2022-11-27T20:21:35.628Z,3.93
2022-11-27T20:24:03.589Z,3.70
2022-11-27T20:26:30.858Z,4.07
2022-11-27T20:28:59.126Z,4.10
2022-11-27T20:31:35.240Z,4.00
2022-11-27T20:34:04.746Z,3.77
2022-11-27T20:36:34.441Z,3.57
2022-11-27T20:39:01.942Z,3.97
2022-11-27T20:41:29.695Z,4.17
2022-11-27T20:43:59.910Z,4.13
2022-11-27T20:46:27.776Z,3.90
2022-11-27T20:48:55.527Z,4.33
2022-11-27T20:51:28.694Z,4.60
2022-11-27T20:53:57.867Z,3.80
2022-11-27T20:56:25.807Z,3.47
2022-11-27T20:58:53.303Z,4.00
2022-11-27T21:01:23.637Z,3.60
2022-11-27T21:03:52.977Z,4.10
2022-11-27T21:06:23.478Z,4.03
2022-11-27T21:08:50.575Z,3.97
2022-11-27T21:11:27.245Z,4.20
2022-11-27T21:13:58.502Z,3.60
2022-11-27T21:16:28.393Z,3.47
2022-11-27T21:18:58.939Z,4.07
2022-11-27T21:21:26.781Z,3.80
2022-11-27T21:23:54.170Z,3.50
2022-11-27T21:26:21.501Z,3.63
2022-11-27T21:28:48.625Z,3.73
2022-11-27T21:31:20.979Z,5.00
2022-11-27T21:33:50.285Z,4.23
2022-11-27T21:36:18.249Z,5.50
2022-11-27T21:38:46.304Z,4.00
2022-11-27T21:41:14.029Z,3.90
2022-11-27T21:43:41.553Z,4.10
2022-11-27T21:46:19.674Z,3.93
2022-11-27T21:48:48.124Z,4.37
2022-11-27T21:51:15.609Z,4.00
2022-11-27T21:53:44.305Z,4.13
2022-11-27T21:56:14.419Z,5.37
2022-11-27T21:58:41.808Z,5.63
2022-11-27T22:01:15.074Z,4.20
2022-11-27T22:03:43.060Z,4.30
2022-11-27T22:06:13.030Z,3.90
2022-11-27T22:08:40.810Z,4.30
2022-11-27T22:11:10.562Z,4.60
2022-11-27T22:13:38.351Z,4.17
2022-11-27T22:16:11.102Z,4.40
2022-11-27T22:18:37.880Z,4.03
2022-11-27T22:21:05.849Z,4.13
2022-11-27T22:23:33.286Z,3.80
2022-11-27T22:26:05.828Z,4.07
2022-11-27T22:28:32.771Z,4.30
2022-11-27T22:30:59.914Z,4.10
2022-11-27T22:33:27.935Z,4.30
2022-11-27T22:35:54.701Z,3.73
2022-11-27T22:38:21.865Z,4.43
2022-11-27T22:40:48.735Z,3.83
2022-11-27T22:43:15.592Z,4.30
2022-11-27T22:45:48.065Z,4.30
2022-11-27T22:48:15.205Z,4.27
2022-11-27T22:50:43.108Z,4.07
2022-11-27T22:53:10.362Z,3.83
2022-11-27T22:55:37.940Z,3.87
2022-11-27T22:58:04.860Z,3.60
2022-11-27T23:00:33.323Z,3.70
2022-11-27T23:03:00.265Z,3.67
2022-11-27T23:05:27.314Z,4.10
2022-11-27T23:07:54.301Z,3.80
2022-11-27T23:10:21.511Z,4.00
2022-11-27T23:12:48.275Z,3.80
2022-11-27T23:15:15.357Z,3.73
2022-11-27T23:17:42.087Z,3.33
2022-11-27T23:20:28.996Z,5.37
2022-11-27T23:22:55.938Z,4.93
2022-11-27T23:25:22.722Z,3.80
2022-11-27T23:27:49.689Z,4.00
2022-11-27T23:30:16.664Z,3.67
2022-11-27T23:32:46.557Z,4.13
2022-11-27T23:35:13.639Z,3.90
2022-11-27T23:37:40.521Z,3.50
2022-11-27T23:40:07.878Z,3.40
2022-11-27T23:42:35.882Z,3.83
2022-11-27T23:45:02.859Z,3.93
2022-11-27T23:47:30.523Z,3.80
2022-11-27T23:49:57.567Z,3.43
2022-11-27T23:52:24.586Z,3.57
2022-11-27T23:54:51.967Z,3.93
2022-11-27T23:57:19.110Z,3.77
2022-11-27T23:59:46.214Z,4.03
